Time;durP1;ratioP1;P1;durP2;ratioP2;P2;SDS_P1;SDS_P2;PMS_P1;PMS_P2;Temp;Humidity;BMP_temperature;BMP_pressure;BME280_temperature;BME280_humidity;BME280_pressure;Samples;Min_cycle;Max_cycle;Signal;HPM_P1;HPM_P2
2022/07/26 00:01:10;;;;;;;17.85;13.98;;;;;;;;;;6188153;23;20024;-86
2022/07/26 00:03:36;;;;;;;16.17;13.57;;;;;;;;;;6214176;23;20020;-86
2022/07/26 00:06:02;;;;;;;16.52;13.85;;;;;;;;;;6189009;23;20078;-86
2022/07/26 00:08:29;;;;;;;17.20;14.95;;;;;;;;;;6188479;23;20016;-86
2022/07/26 00:10:55;;;;;;;19.27;15.13;;;;;;;;;;6186722;23;20059;-85
2022/07/26 00:13:21;;;;;;;20.63;15.13;;;;;;;;;;6188171;23;20020;-85
2022/07/26 00:15:48;;;;;;;19.40;14.65;;;;;;;;;;6212053;23;20296;-85
2022/07/26 00:18:16;;;;;;;18.13;14.45;;;;;;;;;;6187097;23;20434;-85
2022/07/26 00:20:42;;;;;;;18.05;13.95;;;;;;;;;;6188754;23;20068;-86
2022/07/26 00:23:07;;;;;;;20.55;13.77;;;;;;;;;;6212522;23;20022;-85
2022/07/26 00:25:36;;;;;;;18.77;13.68;;;;;;;;;;6189118;23;20042;-86
2022/07/26 00:28:02;;;;;;;16.67;14.68;;;;;;;;;;6188047;23;20024;-86
2022/07/26 00:30:28;;;;;;;15.95;14.15;;;;;;;;;;6190032;23;20081;-86
2022/07/26 00:32:54;;;;;;;18.23;15.05;;;;;;;;;;6185133;23;20020;-86
2022/07/26 00:35:20;;;;;;;19.25;14.65;;;;;;;;;;6190232;23;20035;-86
2022/07/26 00:37:46;;;;;;;18.55;15.02;;;;;;;;;;6145680;23;20437;-86
2022/07/26 00:40:13;;;;;;;16.88;14.60;;;;;;;;;;6206048;23;20397;-86
2022/07/26 00:42:40;;;;;;;18.25;14.98;;;;;;;;;;6215095;23;20020;-86
2022/07/26 00:45:07;;;;;;;20.17;15.00;;;;;;;;;;6215785;23;20020;-86
2022/07/26 00:47:34;;;;;;;15.93;13.93;;;;;;;;;;6212659;23;20020;-86
2022/07/26 00:50:00;;;;;;;15.77;13.80;;;;;;;;;;6209125;23;20346;-86
2022/07/26 00:52:30;;;;;;;16.08;14.45;;;;;;;;;;6170914;23;20016;-86
2022/07/26 00:54:58;;;;;;;16.25;13.32;;;;;;;;;;6176060;23;20413;-86
2022/07/26 00:57:25;;;;;;;14.55;13.00;;;;;;;;;;6196403;23;20012;-86
2022/07/26 00:59:52;;;;;;;15.80;12.85;;;;;;;;;;6120196;23;20332;-86
2022/07/26 01:02:20;;;;;;;13.95;12.52;;;;;;;;;;6188334;23;20016;-86
2022/07/26 01:05:07;;;;;;;13.38;11.98;;;;;;;;;;6137569;23;20047;-86
2022/07/26 01:07:36;;;;;;;15.27;12.85;;;;;;;;;;6162535;23;20020;-86
2022/07/26 01:10:04;;;;;;;15.25;11.80;;;;;;;;;;6181497;23;20047;-86
2022/07/26 01:12:30;;;;;;;16.42;12.32;;;;;;;;;;6159547;23;20028;-86
2022/07/26 01:14:56;;;;;;;14.70;10.93;;;;;;;;;;6205942;23;20020;-86
2022/07/26 01:17:24;;;;;;;13.27;11.45;;;;;;;;;;6216780;23;20070;-86
2022/07/26 01:19:50;;;;;;;14.60;12.00;;;;;;;;;;6216016;23;20091;-85
2022/07/26 01:22:16;;;;;;;15.27;11.50;;;;;;;;;;6190983;23;20020;-86
2022/07/26 01:24:42;;;;;;;12.68;11.38;;;;;;;;;;6217695;23;20089;-86
2022/07/26 01:27:08;;;;;;;14.98;11.60;;;;;;;;;;6216708;23;20067;-85
2022/07/26 01:29:34;;;;;;;15.25;12.10;;;;;;;;;;6214035;23;20016;-86
2022/07/26 01:32:01;;;;;;;14.18;12.13;;;;;;;;;;6215358;23;20541;-86
2022/07/26 01:34:27;;;;;;;14.32;11.35;;;;;;;;;;6214835;23;20020;-86
2022/07/26 01:36:54;;;;;;;13.93;12.18;;;;;;;;;;6189052;23;20090;-86
2022/07/26 01:39:20;;;;;;;17.70;12.18;;;;;;;;;;6187220;23;20020;-86
2022/07/26 01:41:49;;;;;;;14.40;12.57;;;;;;;;;;6192626;23;20093;-86
2022/07/26 01:44:14;;;;;;;15.55;13.75;;;;;;;;;;6191983;23;20012;-85
2022/07/26 01:46:40;;;;;;;17.55;13.82;;;;;;;;;;6216843;23;20012;-86
2022/07/26 01:49:07;;;;;;;15.57;13.35;;;;;;;;;;6217193;23;20074;-86
2022/07/26 01:51:33;;;;;;;17.23;13.65;;;;;;;;;;6193283;23;20042;-85
2022/07/26 01:54:00;;;;;;;15.40;13.90;;;;;;;;;;6217962;23;20475;-85
2022/07/26 01:56:25;;;;;;;16.23;13.52;;;;;;;;;;6217199;23;20019;-86
2022/07/26 01:58:51;;;;;;;15.98;13.38;;;;;;;;;;6193111;23;20362;-85
2022/07/26 02:01:21;;;;;;;16.58;13.45;;;;;;;;;;6216730;23;20019;-86
2022/07/26 02:03:46;;;;;;;14.65;13.15;;;;;;;;;;6214779;23;20386;-86
2022/07/26 02:06:12;;;;;;;15.55;13.68;;;;;;;;;;6191509;23;20028;-86
2022/07/26 02:08:38;;;;;;;15.85;13.98;;;;;;;;;;6191927;23;20035;-86
2022/07/26 02:11:05;;;;;;;17.27;14.55;;;;;;;;;;6162385;23;20083;-85
2022/07/26 02:13:55;;;;;;;15.80;12.95;;;;;;;;;;6161414;23;20107;-85
2022/07/26 02:16:23;;;;;;;14.90;13.30;;;;;;;;;;6184147;23;20017;-86
2022/07/26 02:18:49;;;;;;;16.33;13.10;;;;;;;;;;6159121;23;20012;-86
2022/07/26 02:21:17;;;;;;;19.25;14.65;;;;;;;;;;6174117;23;20021;-86
2022/07/26 02:23:43;;;;;;;17.80;14.50;;;;;;;;;;6163996;23;20036;-85
2022/07/26 02:26:09;;;;;;;14.98;13.48;;;;;;;;;;6214259;23;20477;-86
2022/07/26 02:28:39;;;;;;;15.95;14.15;;;;;;;;;;6209619;23;20016;-85
2022/07/26 02:31:05;;;;;;;17.80;14.07;;;;;;;;;;6169219;23;20310;-85
2022/07/26 02:33:32;;;;;;;16.83;14.93;;;;;;;;;;6185932;23;20008;-85
2022/07/26 02:35:59;;;;;;;17.02;15.20;;;;;;;;;;6187571;23;20012;-84
2022/07/26 02:38:26;;;;;;;19.25;16.08;;;;;;;;;;6213336;23;20040;-84
2022/07/26 02:40:53;;;;;;;15.95;14.23;;;;;;;;;;6190611;23;20016;-85
2022/07/26 02:43:23;;;;;;;16.38;14.52;;;;;;;;;;6217153;23;20082;-85
2022/07/26 02:45:51;;;;;;;17.80;15.52;;;;;;;;;;6177702;23;20028;-86
2022/07/26 02:48:17;;;;;;;18.38;14.90;;;;;;;;;;6191363;23;20348;-86
2022/07/26 02:50:44;;;;;;;16.83;14.77;;;;;;;;;;6216183;23;20375;-85
2022/07/26 02:53:10;;;;;;;16.20;14.38;;;;;;;;;;6215984;23;20023;-86
2022/07/26 02:55:35;;;;;;;16.20;14.38;;;;;;;;;;6192354;23;20020;-86
2022/07/26 02:58:03;;;;;;;17.83;15.05;;;;;;;;;;6215353;23;20020;-85
2022/07/26 03:00:29;;;;;;;17.50;15.10;;;;;;;;;;6189323;23;20012;-86
2022/07/26 03:02:55;;;;;;;15.75;13.82;;;;;;;;;;6215713;23;20426;-86
2022/07/26 03:05:21;;;;;;;17.00;14.90;;;;;;;;;;6191060;23;20043;-85
2022/07/26 03:07:47;;;;;;;17.13;15.30;;;;;;;;;;6215425;23;20461;-85
2022/07/26 03:10:13;;;;;;;18.88;15.18;;;;;;;;;;6214776;23;20107;-86
2022/07/26 03:12:39;;;;;;;17.45;15.45;;;;;;;;;;6214244;23;20034;-86
2022/07/26 03:15:05;;;;;;;19.25;15.15;;;;;;;;;;6216398;23;20012;-86
2022/07/26 03:17:31;;;;;;;17.95;16.05;;;;;;;;;;6217095;23;20047;-86
2022/07/26 03:19:57;;;;;;;19.83;15.60;;;;;;;;;;6213609;23;20397;-86
2022/07/26 03:22:23;;;;;;;17.42;15.43;;;;;;;;;;6188507;23;20087;-86
2022/07/26 03:24:48;;;;;;;19.80;15.38;;;;;;;;;;6214500;23;20087;-86
2022/07/26 03:27:14;;;;;;;17.00;15.25;;;;;;;;;;6213313;23;20035;-86
2022/07/26 03:29:40;;;;;;;21.08;15.57;;;;;;;;;;6213042;23;20237;-86
2022/07/26 03:32:10;;;;;;;18.80;15.65;;;;;;;;;;6210561;23;20366;-86
2022/07/26 03:34:36;;;;;;;17.60;15.80;;;;;;;;;;6163425;23;20012;-85
2022/07/26 03:37:02;;;;;;;17.92;15.82;;;;;;;;;;6159101;23;20075;-85
2022/07/26 03:39:28;;;;;;;22.20;16.30;;;;;;;;;;6177404;23;20791;-86
2022/07/26 03:41:53;;;;;;;17.27;14.93;;;;;;;;;;6183586;23;20016;-85
2022/07/26 03:44:20;;;;;;;20.08;17.15;;;;;;;;;;6214803;23;20016;-86
2022/07/26 03:46:46;;;;;;;18.33;15.90;;;;;;;;;;6190004;23;20091;-86
2022/07/26 03:49:12;;;;;;;18.08;16.17;;;;;;;;;;6216040;23;20345;-85
2022/07/26 03:51:38;;;;;;;20.05;15.60;;;;;;;;;;6238747;23;20020;-86
2022/07/26 03:54:09;;;;;;;20.92;16.48;;;;;;;;;;6213520;23;20016;-85
2022/07/26 03:56:35;;;;;;;19.23;16.13;;;;;;;;;;6186186;23;20023;-86
2022/07/26 03:59:04;;;;;;;21.95;16.92;;;;;;;;;;6187917;23;20024;-85
2022/07/26 04:01:40;;;;;;;19.05;16.63;;;;;;;;;;6211902;23;20016;-85
2022/07/26 04:04:17;;;;;;;19.45;16.38;;;;;;;;;;6214617;23;20019;-86
2022/07/26 04:06:48;;;;;;;22.15;16.13;;;;;;;;;;6210953;23;20508;-86
2022/07/26 04:09:18;;;;;;;21.52;15.98;;;;;;;;;;6192045;23;20342;-86
2022/07/26 04:11:44;;;;;;;22.27;17.13;;;;;;;;;;6148462;23;20103;-86
2022/07/26 04:14:10;;;;;;;21.50;16.13;;;;;;;;;;6177415;23;20025;-85
2022/07/26 04:16:36;;;;;;;23.75;16.00;;;;;;;;;;6179901;23;20020;-85
2022/07/26 04:19:05;;;;;;;20.25;15.30;;;;;;;;;;6156363;23;20024;-86
2022/07/26 04:21:31;;;;;;;18.33;15.23;;;;;;;;;;6155358;23;20012;-85
2022/07/26 04:23:57;;;;;;;18.13;14.57;;;;;;;;;;6201774;23;20331;-85
2022/07/26 04:26:23;;;;;;;22.17;15.90;;;;;;;;;;6154679;23;20012;-85
2022/07/26 04:28:48;;;;;;;17.67;15.38;;;;;;;;;;6185564;23;20095;-85
2022/07/26 04:31:14;;;;;;;18.77;14.20;;;;;;;;;;6186482;23;20028;-85
2022/07/26 04:33:40;;;;;;;22.65;15.77;;;;;;;;;;6185749;23;20047;-85
2022/07/26 04:36:06;;;;;;;19.90;15.25;;;;;;;;;;6208468;23;20020;-85
2022/07/26 04:38:32;;;;;;;20.30;15.10;;;;;;;;;;6208318;23;20016;-85
2022/07/26 04:40:57;;;;;;;19.95;15.02;;;;;;;;;;6210146;23;20032;-85
2022/07/26 04:43:24;;;;;;;17.67;13.82;;;;;;;;;;6186615;23;20047;-85
2022/07/26 04:45:50;;;;;;;18.40;13.82;;;;;;;;;;6205229;23;20016;-85
2022/07/26 04:48:16;;;;;;;20.13;14.32;;;;;;;;;;6184020;23;20215;-86
2022/07/26 04:50:42;;;;;;;15.18;13.05;;;;;;;;;;6184901;23;20115;-85
2022/07/26 04:53:09;;;;;;;18.40;15.48;;;;;;;;;;6211351;23;20115;-86
2022/07/26 04:55:38;;;;;;;17.00;13.95;;;;;;;;;;6213137;23;20016;-85
2022/07/26 04:58:04;;;;;;;19.52;14.18;;;;;;;;;;6213876;23;20036;-85
2022/07/26 05:00:30;;;;;;;20.23;14.15;;;;;;;;;;6189817;23;20385;-85
2022/07/26 05:02:59;;;;;;;21.90;15.00;;;;;;;;;;6214514;23;20024;-85
2022/07/26 05:05:28;;;;;;;18.52;13.75;;;;;;;;;;6189496;23;20012;-85
2022/07/26 05:07:56;;;;;;;19.92;14.25;;;;;;;;;;6211300;23;20078;-84
2022/07/26 05:10:28;;;;;;;20.35;14.38;;;;;;;;;;6212829;23;20012;-85
2022/07/26 05:12:55;;;;;;;15.60;13.70;;;;;;;;;;6214078;23;20027;-85
2022/07/26 05:15:20;;;;;;;18.33;14.25;;;;;;;;;;6190658;23;20091;-86
2022/07/26 05:17:47;;;;;;;17.02;13.40;;;;;;;;;;6188920;23;20020;-86
2022/07/26 05:20:14;;;;;;;20.65;14.35;;;;;;;;;;6189996;23;20047;-86
2022/07/26 05:22:41;;;;;;;20.23;13.68;;;;;;;;;;6211792;23;20047;-86
2022/07/26 05:25:08;;;;;;;16.23;13.80;;;;;;;;;;6205319;23;20377;-85
2022/07/26 05:27:34;;;;;;;14.88;13.32;;;;;;;;;;6213215;23;20450;-85
2022/07/26 05:30:00;;;;;;;20.98;12.80;;;;;;;;;;6188377;23;20059;-86
2022/07/26 05:32:27;;;;;;;17.30;13.07;;;;;;;;;;6187842;23;20024;-85
2022/07/26 05:34:53;;;;;;;17.98;12.35;;;;;;;;;;6176990;23;20019;-86
2022/07/26 05:37:19;;;;;;;15.55;11.23;;;;;;;;;;6214980;23;20070;-86
2022/07/26 05:39:45;;;;;;;15.77;11.50;;;;;;;;;;6163937;23;20020;-85
2022/07/26 05:42:10;;;;;;;17.67;11.20;;;;;;;;;;6214802;23;20023;-86
2022/07/26 05:44:36;;;;;;;15.40;10.63;;;;;;;;;;6188847;23;20082;-85
2022/07/26 05:47:02;;;;;;;16.73;11.32;;;;;;;;;;6189438;23;20020;-86
2022/07/26 05:49:28;;;;;;;13.38;10.68;;;;;;;;;;6212613;23;20352;-85
2022/07/26 05:51:54;;;;;;;13.07;10.35;;;;;;;;;;6211275;23;20016;-85
2022/07/26 05:54:21;;;;;;;11.52;10.07;;;;;;;;;;6214178;23;20016;-86
2022/07/26 05:56:47;;;;;;;16.73;10.43;;;;;;;;;;6189333;23;20047;-86
2022/07/26 05:59:13;;;;;;;13.77;10.40;;;;;;;;;;6184579;23;20020;-86
2022/07/26 06:01:39;;;;;;;12.75;9.75;;;;;;;;;;6186691;23;20073;-86
2022/07/26 06:04:05;;;;;;;15.05;10.43;;;;;;;;;;6210164;23;20350;-86
2022/07/26 06:06:31;;;;;;;16.35;10.07;;;;;;;;;;6212148;23;20012;-86
2022/07/26 06:08:57;;;;;;;11.65;9.50;;;;;;;;;;6211564;23;20359;-86
2022/07/26 06:11:22;;;;;;;12.02;8.80;;;;;;;;;;6187663;23;20064;-85
2022/07/26 06:13:49;;;;;;;11.88;8.50;;;;;;;;;;6186926;23;20024;-86
2022/07/26 06:16:18;;;;;;;13.18;8.52;;;;;;;;;;6189678;23;20043;-86
2022/07/26 06:18:44;;;;;;;13.50;6.32;;;;;;;;;;6188524;23;20122;-86
2022/07/26 06:21:10;;;;;;;9.50;6.85;;;;;;;;;;6214389;23;20054;-86
2022/07/26 06:23:35;;;;;;;10.88;7.25;;;;;;;;;;6188685;23;20027;-85
2022/07/26 06:26:02;;;;;;;11.88;6.68;;;;;;;;;;6238636;23;20024;-87
2022/07/26 06:28:28;;;;;;;12.73;7.15;;;;;;;;;;6214611;23;20012;-86
2022/07/26 06:30:54;;;;;;;8.82;6.50;;;;;;;;;;6215174;23;20047;-86
2022/07/26 06:33:19;;;;;;;7.25;5.80;;;;;;;;;;6215136;23;20020;-86
2022/07/26 06:35:45;;;;;;;9.25;6.50;;;;;;;;;;6211481;23;20020;-86
2022/07/26 06:38:13;;;;;;;10.75;6.30;;;;;;;;;;6189283;23;20024;-86
2022/07/26 06:40:41;;;;;;;10.65;5.32;;;;;;;;;;6171655;23;20039;-86
2022/07/26 06:43:06;;;;;;;8.55;4.78;;;;;;;;;;6188852;23;20068;-85
2022/07/26 06:45:32;;;;;;;8.05;4.63;;;;;;;;;;6215598;23;20042;-86
2022/07/26 06:47:59;;;;;;;9.35;4.43;;;;;;;;;;6215861;23;20335;-86
2022/07/26 06:50:24;;;;;;;6.18;3.88;;;;;;;;;;6192241;23;20008;-86
2022/07/26 06:52:50;;;;;;;6.38;4.20;;;;;;;;;;6192920;23;20588;-86
2022/07/26 06:55:16;;;;;;;8.73;4.28;;;;;;;;;;6215974;23;20062;-86
2022/07/26 06:57:43;;;;;;;6.20;4.22;;;;;;;;;;6216732;23;20117;-87
2022/07/26 07:00:11;;;;;;;6.35;4.00;;;;;;;;;;6216740;23;20046;-86
2022/07/26 07:02:38;;;;;;;8.57;3.97;;;;;;;;;;6189999;23;20016;-86
2022/07/26 07:05:04;;;;;;;11.32;3.97;;;;;;;;;;6190709;23;20031;-86
2022/07/26 07:07:30;;;;;;;10.95;4.07;;;;;;;;;;6189736;23;20070;-86
2022/07/26 07:09:57;;;;;;;8.20;4.03;;;;;;;;;;6216748;23;20012;-86
2022/07/26 07:12:22;;;;;;;7.03;3.67;;;;;;;;;;6215453;23;20071;-85
2022/07/26 07:14:48;;;;;;;8.13;4.07;;;;;;;;;;6191224;23;20044;-86
2022/07/26 07:17:19;;;;;;;9.05;3.70;;;;;;;;;;6190723;23;20012;-86
2022/07/26 07:19:44;;;;;;;7.47;3.28;;;;;;;;;;6211461;23;20058;-87
2022/07/26 07:22:10;;;;;;;6.63;3.75;;;;;;;;;;6191179;23;20060;-87
2022/07/26 07:24:36;;;;;;;8.02;3.28;;;;;;;;;;6216600;22;20016;-86
2022/07/26 07:27:02;;;;;;;8.75;3.20;;;;;;;;;;6191115;23;20290;-86
2022/07/26 07:29:28;;;;;;;8.20;3.70;;;;;;;;;;6215889;23;20016;-86
2022/07/26 07:31:54;;;;;;;7.35;2.78;;;;;;;;;;6191106;23;20335;-85
2022/07/26 07:34:21;;;;;;;8.27;2.72;;;;;;;;;;6217127;23;20020;-86
2022/07/26 07:36:48;;;;;;;5.97;2.83;;;;;;;;;;6189953;23;20031;-87
2022/07/26 07:39:14;;;;;;;7.28;3.20;;;;;;;;;;6189784;23;20036;-86
2022/07/26 07:41:40;;;;;;;7.80;3.15;;;;;;;;;;6215535;23;20016;-85
2022/07/26 07:44:07;;;;;;;8.45;2.97;;;;;;;;;;6216237;23;20358;-86
2022/07/26 07:46:32;;;;;;;9.95;3.10;;;;;;;;;;6190267;23;20026;-86
2022/07/26 07:48:58;;;;;;;6.63;2.53;;;;;;;;;;6190652;23;20024;-86
2022/07/26 07:51:26;;;;;;;5.70;3.00;;;;;;;;;;6190541;23;20016;-85
2022/07/26 07:53:52;;;;;;;9.05;3.72;;;;;;;;;;6190691;23;20031;-87
2022/07/26 07:56:18;;;;;;;6.55;2.78;;;;;;;;;;6215521;23;20039;-86
2022/07/26 07:58:45;;;;;;;8.90;3.17;;;;;;;;;;6190586;23;20056;-86
2022/07/26 08:01:10;;;;;;;8.93;2.90;;;;;;;;;;6215478;23;20391;-85
2022/07/26 08:03:37;;;;;;;7.97;2.50;;;;;;;;;;6211887;23;20020;-85
2022/07/26 08:06:07;;;;;;;10.73;2.63;;;;;;;;;;6189359;23;20520;-85
2022/07/26 08:08:34;;;;;;;7.10;2.20;;;;;;;;;;6214505;23;20489;-85
2022/07/26 08:11:04;;;;;;;4.70;2.30;;;;;;;;;;6190029;23;20425;-85
2022/07/26 08:13:36;;;;;;;5.03;2.22;;;;;;;;;;6186048;23;20020;-85
2022/07/26 08:16:02;;;;;;;9.45;2.10;;;;;;;;;;6210961;23;20044;-85
2022/07/26 08:18:28;;;;;;;7.35;2.08;;;;;;;;;;6146164;23;20407;-85
2022/07/26 08:20:56;;;;;;;6.82;2.20;;;;;;;;;;6185410;23;20509;-85
2022/07/26 08:23:22;;;;;;;7.18;2.45;;;;;;;;;;6184398;23;20036;-85
2022/07/26 08:25:50;;;;;;;5.43;1.90;;;;;;;;;;6181562;23;20399;-85
2022/07/26 08:28:15;;;;;;;5.10;2.63;;;;;;;;;;6173666;23;20087;-85
2022/07/26 08:30:41;;;;;;;8.52;2.45;;;;;;;;;;6170940;23;20605;-85
2022/07/26 08:33:07;;;;;;;8.52;2.20;;;;;;;;;;6170603;23;20012;-85
2022/07/26 08:35:40;;;;;;;6.40;2.15;;;;;;;;;;6203580;23;20067;-85
2022/07/26 08:38:10;;;;;;;8.18;2.58;;;;;;;;;;6212682;23;20027;-85
2022/07/26 08:40:35;;;;;;;5.35;1.98;;;;;;;;;;6209884;23;20071;-85
2022/07/26 08:43:25;;;;;;;4.03;2.25;;;;;;;;;;6157300;23;20451;-85
2022/07/26 08:45:53;;;;;;;4.18;2.03;;;;;;;;;;6178909;23;20039;-85
2022/07/26 08:48:19;;;;;;;5.00;1.90;;;;;;;;;;6185522;23;20386;-85
2022/07/26 08:50:45;;;;;;;5.60;2.20;;;;;;;;;;6209686;23;20048;-85
2022/07/26 08:53:12;;;;;;;5.10;2.28;;;;;;;;;;6181013;23;20020;-85
2022/07/26 08:55:38;;;;;;;4.72;1.63;;;;;;;;;;6190258;23;20066;-85
2022/07/26 08:58:04;;;;;;;5.40;1.88;;;;;;;;;;6208962;23;20023;-85
2022/07/26 09:00:34;;;;;;;6.10;2.33;;;;;;;;;;6157138;23;20458;-86
2022/07/26 09:03:02;;;;;;;4.68;1.95;;;;;;;;;;6167610;23;20016;-84
2022/07/26 09:05:38;;;;;;;4.20;1.75;;;;;;;;;;6212482;23;20012;-85
2022/07/26 09:08:30;;;;;;;4.03;1.77;;;;;;;;;;6172100;23;20244;-84
2022/07/26 09:10:58;;;;;;;9.45;2.22;;;;;;;;;;6177415;23;20450;-85
2022/07/26 09:13:24;;;;;;;4.30;1.40;;;;;;;;;;6172101;23;20013;-86
2022/07/26 09:16:14;;;;;;;8.52;2.22;;;;;;;;;;6155457;23;20019;-85
2022/07/26 09:18:44;;;;;;;4.03;1.80;;;;;;;;;;6180888;23;20051;-85
2022/07/26 09:21:49;;;;;;;7.03;2.15;;;;;;;;;;6149609;23;20381;-85
2022/07/26 09:24:30;;;;;;;10.98;2.00;;;;;;;;;;6171627;23;20024;-85
2022/07/26 09:26:58;;;;;;;4.40;1.83;;;;;;;;;;6144331;23;20020;-85
2022/07/26 09:29:24;;;;;;;3.42;1.73;;;;;;;;;;6188344;23;20020;-85
2022/07/26 09:31:50;;;;;;;9.25;1.80;;;;;;;;;;6143441;23;20519;-85
2022/07/26 09:34:28;;;;;;;5.32;1.92;;;;;;;;;;6166603;23;20039;-85
2022/07/26 09:36:54;;;;;;;5.57;1.90;;;;;;;;;;6214218;22;20323;-87
2022/07/26 09:39:20;;;;;;;4.00;1.33;;;;;;;;;;6186705;23;20473;-88
2022/07/26 09:41:46;;;;;;;4.25;2.20;;;;;;;;;;6189867;23;20022;-87
2022/07/26 09:44:22;;;;;;;4.32;1.65;;;;;;;;;;6192143;23;20523;-87
2022/07/26 09:46:58;;;;;;;3.78;1.50;;;;;;;;;;6191131;23;20012;-87
2022/07/26 09:49:26;;;;;;;2.10;1.33;;;;;;;;;;6241869;23;20068;-87
2022/07/26 09:51:55;;;;;;;5.22;1.48;;;;;;;;;;6193007;23;20461;-87
2022/07/26 09:54:32;;;;;;;4.82;1.98;;;;;;;;;;6189526;23;20036;-87
2022/07/26 09:56:59;;;;;;;4.45;1.77;;;;;;;;;;6184313;23;20392;-85
2022/07/26 09:59:26;;;;;;;4.35;1.77;;;;;;;;;;6179507;23;20375;-84
2022/07/26 10:01:54;;;;;;;4.85;2.00;;;;;;;;;;6178258;23;20088;-87
2022/07/26 10:04:20;;;;;;;3.45;1.98;;;;;;;;;;6154774;23;20020;-87
2022/07/26 10:06:49;;;;;;;7.20;2.15;;;;;;;;;;6186455;23;20358;-86
2022/07/26 10:09:17;;;;;;;3.42;1.63;;;;;;;;;;6187218;23;20490;-86
2022/07/26 10:12:03;;;;;;;4.20;1.63;;;;;;;;;;6209985;23;20088;-87
2022/07/26 10:14:50;;;;;;;4.85;1.55;;;;;;;;;;6241185;23;20335;-86
2022/07/26 10:17:27;;;;;;;3.47;1.60;;;;;;;;;;6208219;23;20035;-87
2022/07/26 10:20:00;;;;;;;3.35;1.60;;;;;;;;;;6217326;23;20043;-87
2022/07/26 10:22:32;;;;;;;4.70;1.85;;;;;;;;;;6202805;23;20474;-84
2022/07/26 10:25:18;;;;;;;5.18;1.77;;;;;;;;;;6217141;23;20020;-85
2022/07/26 10:27:45;;;;;;;4.38;1.90;;;;;;;;;;6208739;23;20052;-87
2022/07/26 10:30:26;;;;;;;5.25;1.35;;;;;;;;;;6190510;23;20016;-87
2022/07/26 10:33:02;;;;;;;3.70;1.60;;;;;;;;;;6216319;23;20016;-87
2022/07/26 10:35:44;;;;;;;3.42;1.55;;;;;;;;;;6215131;23;20020;-86
2022/07/26 10:38:22;;;;;;;6.53;1.63;;;;;;;;;;6190220;23;20024;-87
2022/07/26 10:40:58;;;;;;;3.22;1.17;;;;;;;;;;6190098;23;20042;-87
2022/07/26 10:43:25;;;;;;;3.25;1.10;;;;;;;;;;6240854;23;20015;-87
2022/07/26 10:46:19;;;;;;;4.35;1.25;;;;;;;;;;6191360;23;20020;-87
2022/07/26 10:49:07;;;;;;;7.80;1.38;;;;;;;;;;6240633;23;20004;-87
2022/07/26 10:51:35;;;;;;;2.17;1.00;;;;;;;;;;6240882;23;20176;-87
2022/07/26 10:54:02;;;;;;;4.05;1.00;;;;;;;;;;6215777;23;20026;-86
2022/07/26 10:56:29;;;;;;;2.72;0.90;;;;;;;;;;6189574;23;20465;-87
2022/07/26 10:58:54;;;;;;;3.83;1.10;;;;;;;;;;6188701;23;20642;-87
2022/07/26 11:01:20;;;;;;;2.10;1.05;;;;;;;;;;6209073;23;20032;-87
2022/07/26 11:03:46;;;;;;;4.00;1.10;;;;;;;;;;6188010;23;20031;-87
2022/07/26 11:06:14;;;;;;;2.47;1.17;;;;;;;;;;6188446;23;20008;-87
2022/07/26 11:08:45;;;;;;;6.05;1.65;;;;;;;;;;6184686;23;20066;-87
2022/07/26 11:11:12;;;;;;;4.70;1.42;;;;;;;;;;6188988;23;20095;-87
2022/07/26 11:13:41;;;;;;;5.63;1.63;;;;;;;;;;6215186;23;20383;-87
2022/07/26 11:16:08;;;;;;;4.13;1.20;;;;;;;;;;6215245;23;20016;-86
2022/07/26 11:18:38;;;;;;;3.35;1.13;;;;;;;;;;6189216;23;20079;-86
2022/07/26 11:21:15;;;;;;;2.58;1.33;;;;;;;;;;6190265;23;20019;-86
2022/07/26 11:23:43;;;;;;;4.20;0.98;;;;;;;;;;6210181;23;20028;-87
2022/07/26 11:26:16;;;;;;;5.85;1.35;;;;;;;;;;6188655;23;20023;-87
2022/07/26 11:28:59;;;;;;;3.58;1.50;;;;;;;;;;6215172;23;20473;-87
2022/07/26 11:31:35;;;;;;;6.38;1.38;;;;;;;;;;6240674;23;20016;-87
2022/07/26 11:34:02;;;;;;;2.70;1.00;;;;;;;;;;6214889;23;20014;-86
2022/07/26 11:36:42;;;;;;;3.17;1.00;;;;;;;;;;6190144;23;20012;-87
2022/07/26 11:39:13;;;;;;;4.63;1.40;;;;;;;;;;6214990;23;20012;-88
2022/07/26 11:41:41;;;;;;;4.18;1.33;;;;;;;;;;6190438;23;20040;-88
2022/07/26 11:44:17;;;;;;;3.17;0.90;;;;;;;;;;6213853;23;20016;-87
2022/07/26 11:46:48;;;;;;;2.28;0.80;;;;;;;;;;6188645;23;20035;-88
2022/07/26 11:49:15;;;;;;;4.07;1.23;;;;;;;;;;6215318;23;20023;-85
2022/07/26 11:51:49;;;;;;;2.25;0.95;;;;;;;;;;6189816;23;20016;-85
2022/07/26 11:54:15;;;;;;;2.38;1.10;;;;;;;;;;6190287;23;20278;-85
2022/07/26 11:56:49;;;;;;;3.83;1.10;;;;;;;;;;6188937;23;20049;-85
2022/07/26 11:59:15;;;;;;;2.95;0.82;;;;;;;;;;6213611;23;20023;-85
2022/07/26 12:01:44;;;;;;;2.72;1.20;;;;;;;;;;6192287;23;20409;-86
2022/07/26 12:04:28;;;;;;;5.85;1.30;;;;;;;;;;6190052;23;20016;-85
2022/07/26 12:06:56;;;;;;;2.80;1.13;;;;;;;;;;6190415;23;20035;-85
2022/07/26 12:09:34;;;;;;;4.00;1.20;;;;;;;;;;6189036;23;20087;-86
2022/07/26 12:12:03;;;;;;;1.45;1.10;;;;;;;;;;6237281;23;20020;-84
2022/07/26 12:14:30;;;;;;;3.47;1.15;;;;;;;;;;6216169;23;20346;-85
2022/07/26 12:16:58;;;;;;;3.78;1.13;;;;;;;;;;6188957;23;20046;-85
2022/07/26 12:19:28;;;;;;;3.00;1.23;;;;;;;;;;6188978;23;20033;-85
2022/07/26 12:21:58;;;;;;;5.32;1.27;;;;;;;;;;6188017;23;20039;-86
2022/07/26 12:24:38;;;;;;;4.40;1.10;;;;;;;;;;6188501;23;20008;-85
2022/07/26 12:27:10;;;;;;;2.75;1.02;;;;;;;;;;6234505;23;20016;-84
2022/07/26 12:29:38;;;;;;;4.28;1.30;;;;;;;;;;6181225;23;20070;-87
2022/07/26 12:32:14;;;;;;;3.35;1.15;;;;;;;;;;6188767;23;20450;-85
2022/07/26 12:34:42;;;;;;;4.55;1.60;;;;;;;;;;6187603;23;20030;-85
2022/07/26 12:37:08;;;;;;;7.07;1.73;;;;;;;;;;6189863;23;20063;-85
2022/07/26 12:39:34;;;;;;;3.92;1.40;;;;;;;;;;6213013;23;20435;-85
2022/07/26 12:42:20;;;;;;;6.28;1.65;;;;;;;;;;6211080;23;20082;-85
2022/07/26 12:44:46;;;;;;;5.43;1.88;;;;;;;;;;6188111;23;20020;-85
2022/07/26 12:47:15;;;;;;;4.15;1.67;;;;;;;;;;6189611;23;20024;-85
2022/07/26 12:49:41;;;;;;;7.38;2.10;;;;;;;;;;6237494;23;20020;-85
2022/07/26 12:52:07;;;;;;;6.57;2.13;;;;;;;;;;6181199;23;20012;-85
2022/07/26 12:54:33;;;;;;;3.95;1.55;;;;;;;;;;6208162;23;20013;-85
2022/07/26 12:56:59;;;;;;;1.75;1.20;;;;;;;;;;6212418;23;20043;-86
2022/07/26 12:59:25;;;;;;;4.95;1.60;;;;;;;;;;6209414;23;20082;-85
2022/07/26 13:01:52;;;;;;;5.25;1.67;;;;;;;;;;6207234;23;20012;-86
2022/07/26 13:04:19;;;;;;;3.75;1.65;;;;;;;;;;6208704;23;20240;-86
2022/07/26 13:06:45;;;;;;;3.75;1.63;;;;;;;;;;6182863;23;20016;-86
2022/07/26 13:09:11;;;;;;;2.85;1.63;;;;;;;;;;6214648;23;20047;-86
2022/07/26 13:11:38;;;;;;;2.70;1.20;;;;;;;;;;6239544;23;20020;-86
2022/07/26 13:14:05;;;;;;;1.13;0.70;;;;;;;;;;6189619;23;20016;-85
2022/07/26 13:16:31;;;;;;;2.97;0.80;;;;;;;;;;6215831;23;20019;-85
2022/07/26 13:18:56;;;;;;;3.42;0.52;;;;;;;;;;6199484;23;20012;-86
2022/07/26 13:21:22;;;;;;;1.40;0.50;;;;;;;;;;6159353;23;20450;-86
2022/07/26 13:23:48;;;;;;;3.17;0.75;;;;;;;;;;6191232;23;20075;-86
2022/07/26 13:26:14;;;;;;;1.10;0.50;;;;;;;;;;6178239;23;20019;-86
2022/07/26 13:28:40;;;;;;;2.03;0.68;;;;;;;;;;6141210;23;20414;-86
2022/07/26 13:31:06;;;;;;;4.97;0.77;;;;;;;;;;6150523;23;20023;-85
2022/07/26 13:33:32;;;;;;;6.05;0.68;;;;;;;;;;6155223;23;20516;-86
2022/07/26 13:35:58;;;;;;;2.10;0.60;;;;;;;;;;6176266;23;20042;-86
2022/07/26 13:38:24;;;;;;;0.85;0.52;;;;;;;;;;6184944;23;20024;-86
2022/07/26 13:40:50;;;;;;;1.48;0.70;;;;;;;;;;6187830;23;20485;-86
2022/07/26 13:43:16;;;;;;;2.20;0.60;;;;;;;;;;6184021;23;20012;-86
2022/07/26 13:45:41;;;;;;;1.13;0.60;;;;;;;;;;6172845;23;20051;-86
2022/07/26 13:48:07;;;;;;;1.48;0.68;;;;;;;;;;6204853;23;20430;-86
2022/07/26 13:50:33;;;;;;;0.93;0.75;;;;;;;;;;6217023;23;20012;-86
2022/07/26 13:52:59;;;;;;;1.25;0.70;;;;;;;;;;6192059;23;20066;-85
2022/07/26 13:55:25;;;;;;;2.45;0.80;;;;;;;;;;6193815;23;20043;-86
2022/07/26 13:57:51;;;;;;;0.60;0.55;;;;;;;;;;6219413;23;20024;-85
2022/07/26 14:00:17;;;;;;;3.17;1.35;;;;;;;;;;6190328;23;20012;-86
2022/07/26 14:02:43;;;;;;;1.90;0.80;;;;;;;;;;6218249;23;20024;-86
2022/07/26 14:05:10;;;;;;;3.50;0.60;;;;;;;;;;6192166;23;20472;-86
2022/07/26 14:07:41;;;;;;;1.73;0.98;;;;;;;;;;6190477;23;20020;-86
2022/07/26 14:10:07;;;;;;;41.03;31.50;;;;;;;;;;6185651;23;20013;-86
2022/07/26 14:12:33;;;;;;;0.90;0.73;;;;;;;;;;6160844;23;20008;-86
2022/07/26 14:14:59;;;;;;;1.02;0.60;;;;;;;;;;6212630;23;20030;-86
2022/07/26 14:17:24;;;;;;;1.27;0.60;;;;;;;;;;6208429;23;20020;-86
2022/07/26 14:19:50;;;;;;;1.88;0.90;;;;;;;;;;6140713;23;22290;-86
2022/07/26 14:22:16;;;;;;;1.20;0.57;;;;;;;;;;6184561;23;20017;-86
2022/07/26 14:24:42;;;;;;;1.13;0.60;;;;;;;;;;6192045;23;20035;-86
2022/07/26 14:27:09;;;;;;;1.70;0.85;;;;;;;;;;6238649;23;20031;-86
2022/07/26 14:29:36;;;;;;;1.55;0.82;;;;;;;;;;6187407;23;20035;-85
2022/07/26 14:32:02;;;;;;;2.78;0.95;;;;;;;;;;6191443;23;20020;-85
2022/07/26 14:34:27;;;;;;;1.50;0.60;;;;;;;;;;6216597;23;20020;-86
2022/07/26 14:36:53;;;;;;;0.57;0.52;;;;;;;;;;6215111;23;20078;-86